createdAt,value
2019-01-16T00:01:41.601Z,101357.89
2019-01-16T00:04:47.804Z,101365.53
2019-01-16T00:07:34.797Z,101351.86
2019-01-16T00:10:23.255Z,101355.67
2019-01-16T00:12:58.445Z,101351.80
2019-01-16T00:15:45.176Z,101344.84
2019-01-16T00:18:31.958Z,101345.31
2019-01-16T00:21:15.323Z,101344.84
2019-01-16T00:24:01.393Z,101342.70
2019-01-16T00:26:55.735Z,101340.17
2019-01-16T00:29:42.525Z,101343.61
2019-01-16T00:32:33.322Z,101338.08
2019-01-16T00:35:19.965Z,101332.27
2019-01-16T00:38:08.055Z,101320.86
2019-01-16T00:41:14.275Z,101336.77
2019-01-16T00:44:02.320Z,101333.77
2019-01-16T00:47:09.535Z,101332.55
2019-01-16T00:49:57.506Z,101337.30
2019-01-16T00:52:48.308Z,101334.74
2019-01-16T00:55:34.902Z,101321.27
2019-01-16T00:58:28.324Z,101329.53
2019-01-16T01:01:11.801Z,101322.50
2019-01-16T01:03:58.665Z,101318.08
2019-01-16T01:06:45.265Z,101323.28
2019-01-16T01:09:27.435Z,101318.75
2019-01-16T01:12:21.992Z,101315.66
2019-01-16T01:15:15.764Z,101309.09
2019-01-16T01:18:06.957Z,101308.11
2019-01-16T01:21:00.984Z,101315.27
2019-01-16T01:23:47.601Z,101316.17
2019-01-16T01:26:38.670Z,101319.34
2019-01-16T01:29:35.879Z,101311.25
2019-01-16T01:32:36.293Z,101306.16
2019-01-16T01:35:36.539Z,101302.15
2019-01-16T01:38:30.878Z,101294.78
2019-01-16T01:41:28.200Z,101308.13
2019-01-16T01:44:12.856Z,101301.75
2019-01-16T01:47:13.004Z,101310.91
2019-01-16T01:50:19.414Z,101320.97
2019-01-16T01:53:10.246Z,101317.55
2019-01-16T01:55:58.249Z,101319.19
2019-01-16T01:59:01.728Z,101319.19
2019-01-16T02:01:48.307Z,101317.14
2019-01-16T02:04:45.179Z,101314.76
2019-01-16T02:07:31.983Z,101306.80
2019-01-16T02:10:26.749Z,101312.51
2019-01-16T02:13:20.872Z,101309.89
2019-01-16T02:15:58.348Z,101311.70
2019-01-16T02:19:01.820Z,101307.63
2019-01-16T02:21:49.855Z,101306.91
2019-01-16T02:24:32.119Z,101312.96
2019-01-16T02:27:20.857Z,101309.51
2019-01-16T02:30:07.343Z,101304.00
2019-01-16T02:32:58.473Z,101295.77
2019-01-16T02:35:44.838Z,101293.52
2019-01-16T02:38:42.136Z,101297.18
2019-01-16T02:41:20.711Z,101289.28
2019-01-16T02:44:11.515Z,101291.18
2019-01-16T02:46:58.169Z,101289.23
2019-01-16T02:49:44.803Z,101278.77
2019-01-16T02:52:31.710Z,101276.57
2019-01-16T02:55:31.604Z,101279.36
2019-01-16T02:58:25.168Z,101278.87
2019-01-16T03:01:15.947Z,101271.69
2019-01-16T03:04:03.922Z,101278.73
2019-01-16T03:06:50.718Z,101269.20
2019-01-16T03:09:38.765Z,101274.00
2019-01-16T03:12:45.131Z,101268.47
2019-01-16T03:15:33.156Z,101258.88
2019-01-16T03:18:24.063Z,101272.51
2019-01-16T03:21:10.892Z,101261.16
2019-01-16T03:23:58.037Z,101262.80
2019-01-16T03:26:49.260Z,101261.37
2019-01-16T03:29:52.698Z,101261.37
2019-01-16T03:32:58.824Z,101264.53
2019-01-16T03:35:56.755Z,101252.77
2019-01-16T03:38:43.569Z,101244.61
2019-01-16T03:41:28.490Z,101251.55
2019-01-16T03:44:19.347Z,101244.00
2019-01-16T03:46:56.545Z,101239.59
2019-01-16T03:49:43.435Z,101231.61
2019-01-16T03:52:34.503Z,101231.72
2019-01-16T03:55:31.596Z,101231.23
2019-01-16T03:58:22.428Z,101226.98
2019-01-16T04:01:09.217Z,101217.64
2019-01-16T04:04:03.114Z,101219.71
2019-01-16T04:06:48.879Z,101211.11
2019-01-16T04:09:39.905Z,101209.73
2019-01-16T04:12:32.349Z,101202.39
2019-01-16T04:15:26.203Z,101195.63
2019-01-16T04:18:14.177Z,101195.69
2019-01-16T04:21:05.214Z,101183.62
2019-01-16T04:23:42.742Z,101184.11
2019-01-16T04:26:46.153Z,101181.89
2019-01-16T04:29:32.751Z,101187.81
2019-01-16T04:32:38.875Z,101176.23
2019-01-16T04:35:35.880Z,101166.73
2019-01-16T04:38:30.259Z,101162.36
2019-01-16T04:41:18.379Z,101161.30
2019-01-16T04:44:06.455Z,101154.52
2019-01-16T04:47:00.645Z,101146.21
2019-01-16T04:49:51.689Z,101145.89
2019-01-16T04:52:46.005Z,101150.64
2019-01-16T04:55:34.013Z,101147.22
2019-01-16T04:58:24.873Z,101151.05
2019-01-16T05:01:05.249Z,101141.72
2019-01-16T05:04:11.454Z,101139.52
2019-01-16T05:07:02.373Z,101142.14
2019-01-16T05:09:42.293Z,101134.78
2019-01-16T05:12:48.709Z,101123.58
2019-01-16T05:15:37.521Z,101131.61
2019-01-16T05:18:32.967Z,101126.48
2019-01-16T05:21:24.420Z,101125.19
2019-01-16T05:24:22.432Z,101118.30
2019-01-16T05:27:10.902Z,101116.24
2019-01-16T05:30:16.074Z,101113.91
2019-01-16T05:33:04.253Z,101108.89
2019-01-16T05:35:53.119Z,101111.84
2019-01-16T05:38:43.896Z,101102.38
2019-01-16T05:41:36.847Z,101104.52
2019-01-16T05:44:33.914Z,101104.07
2019-01-16T05:47:22.017Z,101104.09
2019-01-16T05:50:22.409Z,101095.75
2019-01-16T05:53:13.419Z,101099.34
2019-01-16T05:56:19.524Z,101098.84
2019-01-16T05:59:16.754Z,101095.02
2019-01-16T06:02:14.740Z,101084.14
2019-01-16T06:05:11.735Z,101080.63
2019-01-16T06:08:02.839Z,101076.28
2019-01-16T06:10:51.778Z,101072.31
2019-01-16T06:13:49.071Z,101079.75
2019-01-16T06:16:45.553Z,101075.92
2019-01-16T06:19:32.018Z,101066.88
2019-01-16T06:22:18.624Z,101059.73
2019-01-16T06:25:10.015Z,101058.14
2019-01-16T06:28:10.653Z,101055.52
2019-01-16T06:31:04.778Z,101053.26
2019-01-16T06:34:00.572Z,101056.69
2019-01-16T06:37:08.180Z,101045.73
2019-01-16T06:39:56.211Z,101053.77
2019-01-16T06:42:44.359Z,101041.48
2019-01-16T06:45:32.419Z,101044.54
2019-01-16T06:48:32.877Z,101045.00
2019-01-16T06:51:29.456Z,101056.86
2019-01-16T06:54:28.212Z,101048.94
2019-01-16T06:57:13.104Z,101044.50
2019-01-16T07:00:16.273Z,101056.42
2019-01-16T07:03:10.134Z,101050.17
2019-01-16T07:05:52.426Z,101041.43
2019-01-16T07:08:35.792Z,101040.11
2019-01-16T07:11:23.821Z,101048.30
2019-01-16T07:14:10.769Z,101045.82
2019-01-16T07:17:07.822Z,101037.01
2019-01-16T07:20:09.408Z,101036.13
2019-01-16T07:22:51.507Z,101033.75
2019-01-16T07:25:38.152Z,101041.34
2019-01-16T07:28:33.905Z,101033.81
2019-01-16T07:31:20.565Z,101045.65
2019-01-16T07:34:14.550Z,101043.55
2019-01-16T07:37:05.815Z,101030.53
2019-01-16T07:39:45.216Z,101034.55
2019-01-16T07:42:32.095Z,101047.06
2019-01-16T07:45:18.053Z,101047.56
2019-01-16T07:48:05.862Z,101052.38
2019-01-16T07:50:52.882Z,101058.42
2019-01-16T07:53:53.349Z,101053.44
2019-01-16T07:56:53.411Z,101051.72
2019-01-16T07:59:40.329Z,101054.75
2019-01-16T08:02:25.135Z,101062.27
2019-01-16T08:05:12.105Z,101056.05
2019-01-16T08:08:06.519Z,101068.89
2019-01-16T08:11:06.539Z,101066.59
2019-01-16T08:13:46.607Z,101061.34
2019-01-16T08:16:37.724Z,101060.52
2019-01-16T08:19:28.525Z,101047.88
2019-01-16T08:22:25.873Z,101053.44
2019-01-16T08:25:02.023Z,101062.23
2019-01-16T08:27:56.203Z,101054.97
2019-01-16T08:30:43.068Z,101056.88
2019-01-16T08:33:46.523Z,101056.30
2019-01-16T08:36:27.930Z,101058.14
2019-01-16T08:39:34.705Z,101040.94
2019-01-16T08:42:21.669Z,101039.50
2019-01-16T08:45:12.451Z,101031.45
2019-01-16T08:47:59.329Z,101037.70
2019-01-16T08:50:46.124Z,101030.28
2019-01-16T08:53:33.126Z,101029.86
2019-01-16T08:56:11.871Z,101026.64
2019-01-16T08:58:58.823Z,101024.57
2019-01-16T09:01:56.543Z,101021.13
2019-01-16T09:04:56.611Z,101017.05
2019-01-16T09:31:37.118Z,101006.52
2019-01-16T09:34:25.174Z,101017.76
2019-01-16T09:37:13.219Z,101002.40
2019-01-16T09:39:54.658Z,100990.98
2019-01-16T09:42:41.296Z,100986.78
2019-01-16T09:45:32.417Z,100997.03
2019-01-16T09:48:32.693Z,100983.46
2019-01-16T09:51:30.155Z,100987.87
2019-01-16T09:54:26.781Z,100984.17
2019-01-16T09:57:14.172Z,100971.64
2019-01-16T10:00:05.301Z,100966.34
2019-01-16T10:03:11.792Z,100971.98
2019-01-16T10:05:56.935Z,100969.08
2019-01-16T10:09:00.291Z,100963.10
2019-01-16T10:11:57.256Z,100958.83
2019-01-16T10:14:51.260Z,100952.77
2019-01-16T10:17:38.039Z,100954.84
2019-01-16T10:20:21.925Z,100962.87
2019-01-16T10:23:10.143Z,100943.15
2019-01-16T10:26:04.413Z,100955.45
2019-01-16T10:28:48.710Z,100943.55
2019-01-16T10:31:42.643Z,100948.44
2019-01-16T10:34:36.561Z,100949.34
2019-01-16T10:37:23.158Z,100960.48
2019-01-16T10:40:17.250Z,100950.45
2019-01-16T10:43:07.856Z,100944.31
2019-01-16T10:46:10.871Z,100928.34
2019-01-16T10:48:53.841Z,100938.25
2019-01-16T10:52:00.274Z,100918.05
2019-01-16T10:54:51.127Z,100930.77
2019-01-16T10:57:49.742Z,100909.55
2019-01-16T11:00:31.306Z,100904.27
2019-01-16T11:03:25.425Z,100897.38
2019-01-16T11:06:11.959Z,100887.75
2019-01-16T11:09:09.081Z,100886.68
2019-01-16T11:12:03.204Z,100886.14
2019-01-16T11:14:46.139Z,100876.20
2019-01-16T11:17:34.162Z,100879.66
2019-01-16T11:20:15.145Z,100870.23
2019-01-16T11:23:09.183Z,100871.68
2019-01-16T11:26:12.275Z,100862.77
2019-01-16T11:29:05.869Z,100857.30
2019-01-16T11:31:53.890Z,100857.61
2019-01-16T11:34:40.391Z,100861.20
2019-01-16T11:37:31.510Z,100853.78
2019-01-16T11:40:19.632Z,100850.93
2019-01-16T11:43:13.913Z,100844.39
2019-01-16T11:46:07.799Z,100845.83
2019-01-16T11:49:05.897Z,100847.67
2019-01-16T11:52:05.954Z,100829.81
2019-01-16T11:54:52.660Z,100836.17
2019-01-16T11:57:34.923Z,100823.17
2019-01-16T12:00:29.071Z,100823.31
2019-01-16T12:03:17.119Z,100815.80
2019-01-16T12:06:03.886Z,100826.10
2019-01-16T12:08:56.498Z,100817.19
2019-01-16T12:11:34.426Z,100813.30
2019-01-16T12:14:25.440Z,100806.72
2019-01-16T12:17:22.712Z,100798.95
2019-01-16T12:20:09.311Z,100801.82
2019-01-16T12:22:50.889Z,100799.30
2019-01-16T12:25:48.036Z,100779.86
2019-01-16T12:28:36.026Z,100773.55
2019-01-16T12:31:10.582Z,100772.11
2019-01-16T12:34:03.950Z,100764.12
2019-01-16T12:37:07.368Z,100756.15
2019-01-16T12:39:41.926Z,100751.98
2019-01-16T12:42:36.272Z,100731.59
2019-01-16T12:45:30.602Z,100737.59
2019-01-16T12:48:24.683Z,100726.28
2019-01-16T12:51:11.528Z,100733.08
2019-01-16T12:53:58.156Z,100728.44
2019-01-16T12:56:41.897Z,100726.62
2019-01-16T12:59:32.389Z,100727.80
2019-01-16T13:02:11.478Z,100726.58
2019-01-16T13:05:17.574Z,100714.47
2019-01-16T13:08:08.388Z,100707.63
2019-01-16T13:10:59.459Z,100688.15
2019-01-16T13:13:59.432Z,100698.50
2019-01-16T13:16:45.909Z,100689.07
2019-01-16T13:19:32.736Z,100696.70
2019-01-16T13:22:23.964Z,100692.77
2019-01-16T13:25:20.847Z,100684.42
2019-01-16T13:28:06.533Z,100672.82
2019-01-16T13:31:02.603Z,100668.86
2019-01-16T13:33:56.777Z,100660.52
2019-01-16T13:36:47.696Z,100656.00
2019-01-16T13:39:33.780Z,100664.77
2019-01-16T13:42:25.369Z,100659.11
2019-01-16T13:45:23.243Z,100642.70
2019-01-16T13:48:24.400Z,100631.31
2019-01-16T13:51:05.140Z,100623.43
2019-01-16T13:53:57.727Z,100611.92
2019-01-16T13:56:43.299Z,100621.00
2019-01-16T13:59:34.132Z,100621.00
2019-01-16T14:02:28.411Z,100611.72
2019-01-16T14:05:12.843Z,100610.89
2019-01-16T14:08:09.771Z,100605.88
2019-01-16T14:10:55.859Z,100595.80
2019-01-16T14:13:42.565Z,100596.19
2019-01-16T14:16:33.790Z,100584.09
2019-01-16T14:19:21.919Z,100591.84
2019-01-16T14:22:08.772Z,100573.11
2019-01-16T14:25:05.969Z,100564.63
2019-01-16T14:27:53.990Z,100569.05
2019-01-16T14:30:37.080Z,100567.42
2019-01-16T14:33:22.504Z,100564.70
2019-01-16T14:36:02.694Z,100567.52
2019-01-16T14:39:06.016Z,100562.19
2019-01-16T14:41:45.143Z,100563.95
2019-01-16T14:44:26.787Z,100571.70
2019-01-16T14:58:57.369Z,100555.98
2019-01-16T15:01:45.547Z,100544.25
2019-01-16T15:04:33.658Z,100536.69
2019-01-16T15:07:12.555Z,100548.91
2019-01-16T15:10:12.692Z,100553.33
2019-01-16T15:12:51.851Z,100557.59
2019-01-16T15:15:37.607Z,100545.02
2019-01-16T15:18:24.253Z,100537.61
2019-01-16T15:21:21.218Z,100530.68
2019-01-16T15:24:08.022Z,100520.55
2019-01-16T15:26:59.247Z,100524.61
2019-01-16T15:29:53.293Z,100522.27
2019-01-16T15:32:46.830Z,100507.90
2019-01-16T15:35:34.721Z,100506.13
2019-01-16T15:38:18.112Z,100501.44
2019-01-16T15:41:10.059Z,100497.05
2019-01-16T15:44:01.351Z,100485.69
2019-01-16T15:46:42.733Z,100473.50
2019-01-16T15:49:46.054Z,100474.41
2019-01-16T15:52:28.777Z,100471.83
2019-01-16T15:55:21.832Z,100461.31
2019-01-16T15:58:18.138Z,100457.42
2019-01-16T16:01:02.859Z,100451.67
2019-01-16T16:04:09.306Z,100448.73
2019-01-16T16:06:57.458Z,100439.09
2019-01-16T16:09:57.645Z,100448.73
2019-01-16T16:12:51.622Z,100443.08
2019-01-16T16:15:38.118Z,100441.68
2019-01-16T16:18:34.552Z,100434.27
2019-01-16T16:21:21.448Z,100415.11
2019-01-16T16:24:07.639Z,100421.65
2019-01-16T16:27:04.962Z,100398.08
2019-01-16T16:29:58.974Z,100405.03
2019-01-16T16:32:53.251Z,100411.14
2019-01-16T16:35:51.537Z,100409.02
2019-01-16T16:38:45.921Z,100406.37
2019-01-16T16:41:29.181Z,100400.69
2019-01-16T16:44:21.982Z,100404.58
2019-01-16T16:47:28.615Z,100401.58
2019-01-16T16:50:30.625Z,100406.70
2019-01-16T16:53:31.389Z,100401.02
2019-01-16T16:56:13.394Z,100397.95
2019-01-16T16:59:07.405Z,100398.38
2019-01-16T17:01:54.106Z,100397.07
2019-01-16T17:04:45.099Z,100397.14
2019-01-16T17:07:33.861Z,100398.84
2019-01-16T17:10:32.181Z,100391.03
2019-01-16T17:13:16.128Z,100393.67
2019-01-16T17:16:02.643Z,100388.02
2019-01-16T17:18:52.096Z,100385.86
2019-01-16T17:21:38.504Z,100381.52
2019-01-16T17:24:17.984Z,100378.88
2019-01-16T17:27:09.260Z,100381.95
2019-01-16T17:30:05.837Z,100378.48
2019-01-16T17:32:53.953Z,100378.08
2019-01-16T17:35:48.041Z,100378.05
2019-01-16T17:38:24.392Z,100375.84
2019-01-16T17:41:22.391Z,100370.66
2019-01-16T17:44:09.493Z,100373.68
2019-01-16T17:46:56.050Z,100362.40
2019-01-16T17:49:53.397Z,100359.81
2019-01-16T17:52:47.382Z,100345.39
2019-01-16T17:55:35.393Z,100338.42
2019-01-16T17:58:21.654Z,100340.64
2019-01-16T18:01:08.450Z,100335.36
2019-01-16T18:03:48.223Z,100332.33
2019-01-16T18:06:36.306Z,100325.34
2019-01-16T18:09:28.648Z,100330.16
2019-01-16T18:12:29.066Z,100328.37
2019-01-16T18:15:19.988Z,100323.60
2019-01-16T18:18:11.005Z,100314.51
2019-01-16T18:21:17.245Z,100312.70
2019-01-16T18:24:03.902Z,100308.78
2019-01-16T18:26:44.878Z,100304.88
2019-01-16T18:29:31.591Z,100312.30
2019-01-16T18:32:19.728Z,100313.56
2019-01-16T18:35:10.723Z,100310.55
2019-01-16T18:37:57.599Z,100320.54
2019-01-16T18:40:57.851Z,100321.42
2019-01-16T18:47:02.825Z,100313.54
2019-01-16T18:49:51.063Z,100300.91
2019-01-16T18:52:51.746Z,100302.61
2019-01-16T18:55:44.379Z,100320.47
2019-01-16T18:58:22.989Z,100301.75
2019-01-16T19:01:08.640Z,100293.45
2019-01-16T19:03:47.684Z,100301.30
2019-01-16T19:06:35.905Z,100295.20
2019-01-16T19:09:29.812Z,100289.52
2019-01-16T19:12:17.995Z,100296.52
2019-01-16T19:15:08.934Z,100293.36
2019-01-16T19:17:55.611Z,100297.77
2019-01-16T19:20:49.654Z,100287.71
2019-01-16T19:23:49.699Z,100275.59
2019-01-16T19:26:46.995Z,100272.50
2019-01-16T19:29:30.998Z,100261.13
2019-01-16T19:32:17.936Z,100254.25
2019-01-16T19:35:05.475Z,100242.47
2019-01-16T19:37:50.316Z,100249.42
2019-01-16T19:40:37.201Z,100237.22
2019-01-16T19:43:32.431Z,100238.59
2019-01-16T19:46:35.938Z,100225.51
2019-01-16T19:49:30.035Z,100219.41
2019-01-16T19:52:16.636Z,100210.23
2019-01-16T19:55:03.299Z,100222.86
2019-01-16T19:57:51.398Z,100198.48
2019-01-16T20:00:38.290Z,100213.31
2019-01-16T20:03:32.431Z,100213.78
2019-01-16T20:06:16.780Z,100204.17
2019-01-16T20:09:18.104Z,100212.93
2019-01-16T20:12:15.501Z,100213.31
2019-01-16T20:15:02.246Z,100208.11
2019-01-16T20:17:53.426Z,100209.87
2019-01-16T20:20:36.423Z,100208.52
2019-01-16T20:23:24.495Z,100204.62
2019-01-16T20:26:12.521Z,100200.26
2019-01-16T20:29:06.604Z,100211.58
2019-01-16T20:31:57.407Z,100191.53
2019-01-16T20:34:43.193Z,100192.86
2019-01-16T20:37:40.324Z,100186.76
2019-01-16T20:40:28.202Z,100184.59
2019-01-16T20:43:10.682Z,100193.28
2019-01-16T20:45:58.736Z,100186.31
2019-01-16T20:48:52.066Z,100186.32
2019-01-16T20:51:43.059Z,100174.11
2019-01-16T20:54:28.179Z,100161.11
2019-01-16T20:57:12.237Z,100166.74
2019-01-16T21:00:12.355Z,100165.86
2019-01-16T21:03:03.239Z,100167.13
2019-01-16T21:06:03.561Z,100160.20
2019-01-16T21:08:54.685Z,100160.20
2019-01-16T21:11:41.310Z,100163.22
2019-01-16T21:14:24.016Z,100158.45
2019-01-16T21:17:10.919Z,100162.81
2019-01-16T21:20:00.298Z,100174.57
2019-01-16T21:22:42.558Z,100157.98
2019-01-16T21:25:42.579Z,100154.98
2019-01-16T21:28:30.614Z,100157.16
2019-01-16T21:31:18.627Z,100155.42
2019-01-16T21:34:05.144Z,100146.69
2019-01-16T21:36:51.616Z,100141.92
2019-01-16T21:39:45.671Z,100130.62
2019-01-16T21:42:43.829Z,100135.83
2019-01-16T21:45:31.845Z,100134.09
2019-01-16T21:48:28.805Z,100127.58
2019-01-16T21:51:26.071Z,100124.09
2019-01-16T21:54:20.427Z,100117.54
2019-01-16T21:57:03.719Z,100116.69
2019-01-16T21:59:54.542Z,100126.28
2019-01-16T22:02:48.507Z,100108.85
2019-01-16T22:05:39.207Z,100113.67
2019-01-16T22:08:42.327Z,100113.20
2019-01-16T22:11:33.422Z,100111.90
2019-01-16T22:14:25.803Z,100110.59
2019-01-16T22:17:17.654Z,100106.26
2019-01-16T22:20:11.864Z,100106.67
2019-01-16T22:22:58.831Z,100106.26
2019-01-16T22:25:42.068Z,100111.50
2019-01-16T22:28:32.078Z,100111.47
2019-01-16T22:31:11.109Z,100111.04
2019-01-16T22:34:05.198Z,100108.86
2019-01-16T22:36:49.022Z,100113.22
2019-01-16T22:39:45.382Z,100116.27
2019-01-16T22:42:22.939Z,100126.30
2019-01-16T22:45:20.105Z,100121.44
2019-01-16T22:48:10.866Z,100111.02
2019-01-16T22:51:14.017Z,100113.55
2019-01-16T22:54:17.423Z,100112.31
2019-01-16T22:56:56.561Z,100119.67
2019-01-16T22:59:43.513Z,100112.30
2019-01-16T23:02:25.090Z,100097.02
2019-01-16T23:05:13.088Z,100090.46
2019-01-16T23:08:13.081Z,100096.57
2019-01-16T23:11:08.390Z,100094.81
2019-01-16T23:13:55.450Z,100100.09
2019-01-16T23:16:39.167Z,100096.16
2019-01-16T23:19:30.146Z,100092.25
2019-01-16T23:22:16.862Z,100084.33
2019-01-16T23:25:07.887Z,100094.72
2019-01-16T23:28:07.371Z,100088.60
2019-01-16T23:30:43.339Z,100083.78
2019-01-16T23:33:30.060Z,100096.88
2019-01-16T23:36:12.789Z,100085.52
2019-01-16T23:38:51.972Z,100090.34
2019-01-16T23:41:40.003Z,100082.98
2019-01-16T23:44:28.043Z,100074.73
2019-01-16T23:47:14.996Z,100077.73
2019-01-16T23:50:01.681Z,100079.52
2019-01-16T23:52:55.567Z,100078.19
2019-01-16T23:55:46.610Z,100083.86
2019-01-16T23:58:37.628Z,100089.95
